createdAt,value
2019-05-20T00:00:28.233Z,16.23
2019-05-20T00:02:56.717Z,16.23
2019-05-20T00:05:25.366Z,16.20
2019-05-20T00:07:53.925Z,16.19
2019-05-20T00:10:22.388Z,16.18
2019-05-20T00:12:50.790Z,16.14
2019-05-20T00:15:19.484Z,16.11
2019-05-20T00:17:47.881Z,16.07
2019-05-20T00:20:16.520Z,16.06
2019-05-20T00:22:45.144Z,16.00
2019-05-20T00:25:13.613Z,15.90
2019-05-20T00:27:42.013Z,15.83
2019-05-20T00:30:11.189Z,15.77
2019-05-20T00:32:41.598Z,15.67
2019-05-20T00:35:10.341Z,15.62
2019-05-20T00:37:38.760Z,15.60
2019-05-20T00:40:08.096Z,15.54
2019-05-20T00:42:36.567Z,15.47
2019-05-20T00:45:06.033Z,15.38
2019-05-20T00:47:34.432Z,15.29
2019-05-20T00:50:03.263Z,15.25
2019-05-20T00:52:32.023Z,15.14
2019-05-20T00:55:00.421Z,15.04
2019-05-20T00:57:28.840Z,14.97
2019-05-20T00:59:57.356Z,14.94
2019-05-20T01:02:25.778Z,14.93
2019-05-20T01:04:54.147Z,14.95
2019-05-20T01:07:22.672Z,14.93
2019-05-20T01:09:51.068Z,14.88
2019-05-20T01:12:19.483Z,14.84
2019-05-20T01:14:48.057Z,14.84
2019-05-20T01:17:16.460Z,14.82
2019-05-20T01:19:44.858Z,14.76
2019-05-20T01:22:13.286Z,14.68
2019-05-20T01:24:41.690Z,14.63
2019-05-20T01:27:10.096Z,14.60
2019-05-20T01:29:38.529Z,14.61
2019-05-20T01:32:06.923Z,14.60
2019-05-20T01:34:35.321Z,14.59
2019-05-20T01:37:03.957Z,14.63
2019-05-20T01:39:32.373Z,14.69
2019-05-20T01:42:00.755Z,14.71
2019-05-20T01:44:29.293Z,14.73
2019-05-20T01:46:57.764Z,14.70
2019-05-20T01:49:26.160Z,14.71
2019-05-20T01:51:54.609Z,14.71
2019-05-20T01:54:23.007Z,14.71
2019-05-20T01:56:51.473Z,14.73
2019-05-20T01:59:20.087Z,14.70
2019-05-20T02:01:48.485Z,14.71
2019-05-20T02:04:16.875Z,14.74
2019-05-20T02:06:45.437Z,14.75
2019-05-20T02:09:13.837Z,14.82
2019-05-20T02:11:42.242Z,14.89
2019-05-20T02:14:12.302Z,14.93
2019-05-20T02:16:40.697Z,14.96
2019-05-20T02:19:09.377Z,14.88
2019-05-20T02:21:37.944Z,14.71
2019-05-20T02:24:06.351Z,14.55
2019-05-20T02:26:35.092Z,14.43
2019-05-20T02:29:04.474Z,14.32
2019-05-20T02:31:32.870Z,14.27
2019-05-20T02:34:01.258Z,14.25
2019-05-20T02:36:29.800Z,14.31
2019-05-20T02:38:58.286Z,14.36
2019-05-20T02:41:27.301Z,14.38
2019-05-20T02:43:55.907Z,14.36
2019-05-20T02:46:24.389Z,14.36
2019-05-20T02:48:52.770Z,14.37
2019-05-20T02:51:22.829Z,14.43
2019-05-20T02:53:51.226Z,14.47
2019-05-20T02:56:19.624Z,14.50
2019-05-20T02:58:48.226Z,14.52
2019-05-20T03:01:16.622Z,14.50
2019-05-20T03:03:45.151Z,14.47
2019-05-20T03:06:13.776Z,14.43
2019-05-20T03:08:42.175Z,14.40
2019-05-20T03:11:10.579Z,14.38
2019-05-20T03:13:39.114Z,14.40
2019-05-20T03:16:07.537Z,14.36
2019-05-20T03:18:35.934Z,14.32
2019-05-20T03:21:04.389Z,14.28
2019-05-20T03:23:32.766Z,14.25
2019-05-20T03:26:01.194Z,14.25
2019-05-20T03:28:29.796Z,14.29
2019-05-20T03:30:58.191Z,14.31
2019-05-20T03:33:26.628Z,14.32
2019-05-20T03:35:55.034Z,14.35
2019-05-20T03:38:23.414Z,14.33
2019-05-20T03:40:51.812Z,14.33
2019-05-20T03:43:20.241Z,14.35
2019-05-20T03:45:48.644Z,14.37
2019-05-20T03:48:17.035Z,14.35
2019-05-20T03:50:45.523Z,14.38
2019-05-20T03:53:13.918Z,14.42
2019-05-20T03:55:42.896Z,14.42
2019-05-20T03:58:13.639Z,14.44
2019-05-20T04:00:46.494Z,14.49
2019-05-20T04:03:16.718Z,14.56
2019-05-20T04:05:45.422Z,14.61
2019-05-20T04:08:13.831Z,14.65
2019-05-20T04:10:42.363Z,14.67
2019-05-20T04:13:10.765Z,14.68
2019-05-20T04:15:39.176Z,14.64
2019-05-20T04:18:07.605Z,14.57
2019-05-20T04:20:37.648Z,14.47
2019-05-20T04:23:06.380Z,14.43
2019-05-20T04:25:34.968Z,14.38
2019-05-20T04:28:03.373Z,14.37
2019-05-20T04:30:31.757Z,14.39
2019-05-20T04:33:00.328Z,14.42
2019-05-20T04:35:28.727Z,14.40
2019-05-20T04:37:57.130Z,14.32
2019-05-20T04:40:25.774Z,14.31
2019-05-20T04:42:54.173Z,14.27
2019-05-20T04:45:22.579Z,14.24
2019-05-20T04:47:51.318Z,14.22
2019-05-20T04:50:19.723Z,14.19
2019-05-20T04:52:48.123Z,14.18
2019-05-20T04:55:16.789Z,14.21
2019-05-20T04:57:45.515Z,14.22
2019-05-20T05:00:14.457Z,14.21
2019-05-20T05:02:43.820Z,14.25
2019-05-20T05:05:12.732Z,14.30
2019-05-20T05:07:41.131Z,14.34
2019-05-20T05:10:10.686Z,14.34
2019-05-20T05:12:39.152Z,14.37
2019-05-20T05:15:08.690Z,14.43
2019-05-20T05:17:37.389Z,14.49
2019-05-20T05:20:06.649Z,14.53
2019-05-20T05:22:35.100Z,14.55
2019-05-20T05:25:04.882Z,14.53
2019-05-20T05:27:33.276Z,14.52
2019-05-20T05:30:01.694Z,14.48
2019-05-20T05:32:42.524Z,14.48
2019-05-20T05:35:16.443Z,14.44
2019-05-20T05:37:45.094Z,14.38
2019-05-20T05:40:14.311Z,14.29
2019-05-20T05:42:42.881Z,14.25
2019-05-20T05:45:12.839Z,14.24
2019-05-20T05:47:41.273Z,14.24
2019-05-20T05:50:10.098Z,14.25
2019-05-20T05:52:38.494Z,14.25
2019-05-20T05:55:07.264Z,14.24
2019-05-20T05:57:38.340Z,14.18
2019-05-20T06:00:08.078Z,14.16
2019-05-20T06:02:36.509Z,14.08
2019-05-20T06:05:05.944Z,13.96
2019-05-20T06:07:34.494Z,13.86
2019-05-20T06:10:02.920Z,13.79
2019-05-20T06:12:31.326Z,13.73
2019-05-20T06:14:59.737Z,13.67
2019-05-20T06:17:30.272Z,13.61
2019-05-20T06:19:58.392Z,13.58
2019-05-20T06:22:26.790Z,13.56
2019-05-20T06:24:55.357Z,13.57
2019-05-20T06:27:23.755Z,13.58
2019-05-20T06:29:52.155Z,13.58
2019-05-20T06:32:20.703Z,13.57
2019-05-20T06:34:49.094Z,13.56
2019-05-20T06:37:24.686Z,13.58
2019-05-20T06:39:53.116Z,13.56
2019-05-20T06:42:21.523Z,13.54
2019-05-20T06:44:52.882Z,13.57
2019-05-20T06:47:20.272Z,13.59
2019-05-20T06:49:48.679Z,13.62
2019-05-20T06:52:17.087Z,13.66
2019-05-20T06:54:45.614Z,13.65
2019-05-20T06:57:14.220Z,13.68
2019-05-20T06:59:42.640Z,13.68
2019-05-20T07:02:11.275Z,13.70
2019-05-20T07:04:39.667Z,13.73
2019-05-20T07:07:20.564Z,13.73
2019-05-20T07:09:38.339Z,13.70
2019-05-20T07:12:06.842Z,13.63
2019-05-20T07:14:35.225Z,13.56
2019-05-20T07:17:03.663Z,13.46
2019-05-20T07:19:32.062Z,13.35
2019-05-20T07:22:00.460Z,13.27
2019-05-20T07:24:29.039Z,13.22
2019-05-20T07:26:57.444Z,13.19
2019-05-20T07:29:25.842Z,13.19
2019-05-20T07:31:54.296Z,13.19
2019-05-20T07:34:22.692Z,13.20
2019-05-20T07:37:02.702Z,13.20
2019-05-20T07:39:21.342Z,13.11
2019-05-20T07:41:49.732Z,13.06
2019-05-20T07:44:18.130Z,13.03
2019-05-20T07:46:46.909Z,13.04
2019-05-20T07:49:15.933Z,12.99
2019-05-20T07:51:45.362Z,12.93
2019-05-20T07:54:15.093Z,12.87
2019-05-20T07:56:46.948Z,12.82
2019-05-20T07:59:17.826Z,12.78
2019-05-20T08:01:46.254Z,12.73
2019-05-20T08:04:14.699Z,12.67
2019-05-20T08:06:43.152Z,12.65
2019-05-20T08:09:11.826Z,12.65
2019-05-20T08:11:40.453Z,12.65
2019-05-20T08:14:08.854Z,12.66
2019-05-20T08:16:37.436Z,12.66
2019-05-20T08:19:05.976Z,12.67
2019-05-20T08:21:34.378Z,12.68
2019-05-20T08:24:03.035Z,12.65
2019-05-20T08:26:31.489Z,12.58
2019-05-20T08:28:59.863Z,12.57
2019-05-20T08:31:28.447Z,12.55
2019-05-20T08:33:56.983Z,12.54
2019-05-20T08:36:25.371Z,12.52
2019-05-20T08:38:53.811Z,12.54
2019-05-20T08:41:22.270Z,12.56
2019-05-20T08:43:50.716Z,12.57
2019-05-20T08:46:19.238Z,12.60
2019-05-20T08:48:47.640Z,12.62
2019-05-20T08:51:16.040Z,12.62
2019-05-20T08:53:44.469Z,12.63
2019-05-20T08:56:12.887Z,12.65
2019-05-20T08:58:41.275Z,12.66
2019-05-20T09:01:11.586Z,12.66
2019-05-20T09:03:39.957Z,12.70
2019-05-20T09:06:08.358Z,12.73
2019-05-20T09:08:36.788Z,12.76
2019-05-20T09:11:05.201Z,12.80
2019-05-20T09:13:33.609Z,12.82
2019-05-20T09:16:02.278Z,12.87
2019-05-20T09:18:30.697Z,12.89
2019-05-20T09:20:59.095Z,12.88
2019-05-20T09:23:27.680Z,12.84
2019-05-20T09:25:56.072Z,12.83
2019-05-20T09:28:24.469Z,12.83
2019-05-20T09:30:53.503Z,12.84
2019-05-20T09:33:22.641Z,12.83
2019-05-20T09:35:51.569Z,12.84
2019-05-20T09:38:21.424Z,12.84
2019-05-20T09:40:50.248Z,12.87
2019-05-20T09:43:18.685Z,12.93
2019-05-20T09:45:47.117Z,12.98
2019-05-20T09:48:15.758Z,13.00
2019-05-20T09:50:44.294Z,13.02
2019-05-20T09:53:12.748Z,13.06
2019-05-20T09:55:41.392Z,13.12
2019-05-20T09:58:09.857Z,13.19
2019-05-20T10:00:38.590Z,13.26
2019-05-20T10:03:07.804Z,13.29
2019-05-20T10:05:37.430Z,13.33
2019-05-20T10:08:08.219Z,13.36
2019-05-20T10:10:36.898Z,13.37
2019-05-20T10:13:05.514Z,13.38
2019-05-20T10:15:34.887Z,13.45
2019-05-20T10:18:03.294Z,13.52
2019-05-20T10:20:31.698Z,13.52
2019-05-20T10:23:00.134Z,13.50
2019-05-20T10:25:28.531Z,13.51
2019-05-20T10:27:57.805Z,13.50
2019-05-20T10:30:27.075Z,13.52
2019-05-20T10:32:55.465Z,13.49
2019-05-20T10:35:23.886Z,13.45
2019-05-20T10:37:52.317Z,13.46
2019-05-20T10:40:20.797Z,13.48
2019-05-20T10:42:49.257Z,13.49
2019-05-20T10:45:19.765Z,13.53
2019-05-20T10:47:48.158Z,13.51
2019-05-20T10:50:16.731Z,13.46
2019-05-20T10:52:46.089Z,13.44
2019-05-20T10:55:15.622Z,13.42
2019-05-20T10:57:44.022Z,13.38
2019-05-20T11:00:13.590Z,13.35
2019-05-20T11:02:42.003Z,13.35
2019-05-20T11:05:10.824Z,13.31
2019-05-20T11:07:39.475Z,13.32
2019-05-20T11:10:08.381Z,13.35
2019-05-20T11:12:36.993Z,13.34
2019-05-20T11:15:09.327Z,13.37
2019-05-20T11:17:37.819Z,13.37
2019-05-20T11:20:08.334Z,13.37
2019-05-20T11:22:38.413Z,13.36
2019-05-20T11:25:07.789Z,13.35
2019-05-20T11:27:36.181Z,13.34
2019-05-20T11:30:07.529Z,13.35
2019-05-20T11:32:35.930Z,13.34
2019-05-20T11:35:07.177Z,13.34
2019-05-20T11:37:35.750Z,13.37
2019-05-20T11:40:07.197Z,13.41
2019-05-20T11:42:35.637Z,13.42
2019-05-20T11:45:10.090Z,13.43
2019-05-20T11:47:38.500Z,13.41
2019-05-20T11:50:08.729Z,13.38
2019-05-20T11:52:37.420Z,13.40
2019-05-20T11:55:06.858Z,13.43
2019-05-20T11:57:35.341Z,13.45
2019-05-20T12:00:06.351Z,13.46
2019-05-20T12:02:34.747Z,13.49
2019-05-20T12:05:03.408Z,13.49
2019-05-20T12:07:31.897Z,13.44
2019-05-20T12:10:00.305Z,13.38
2019-05-20T12:12:28.767Z,13.36
2019-05-20T12:14:58.120Z,13.36
2019-05-20T12:17:26.518Z,13.36
2019-05-20T12:19:54.919Z,13.38
2019-05-20T12:22:24.699Z,13.38
2019-05-20T12:24:53.099Z,13.36
2019-05-20T12:27:21.505Z,13.38
2019-05-20T12:29:50.028Z,13.38
2019-05-20T12:32:18.436Z,13.37
2019-05-20T12:34:46.833Z,13.35
2019-05-20T12:37:15.359Z,13.32
2019-05-20T12:39:43.766Z,13.24
2019-05-20T12:42:12.294Z,13.22
2019-05-20T12:44:41.034Z,13.18
2019-05-20T12:47:09.509Z,13.15
2019-05-20T12:49:38.040Z,13.15
2019-05-20T12:52:06.621Z,13.16
2019-05-20T12:54:35.030Z,13.12
2019-05-20T12:57:03.443Z,13.08
2019-05-20T12:59:31.997Z,13.04
2019-05-20T13:02:00.393Z,13.00
2019-05-20T13:04:28.803Z,12.96
2019-05-20T13:06:57.450Z,12.92
2019-05-20T13:09:25.911Z,12.87
2019-05-20T13:11:54.451Z,12.82
2019-05-20T13:14:22.889Z,12.82
2019-05-20T13:16:51.420Z,12.83
2019-05-20T13:19:19.797Z,12.83
2019-05-20T13:21:48.327Z,12.82
2019-05-20T13:24:16.755Z,12.82
2019-05-20T13:26:45.171Z,12.84
2019-05-20T13:29:13.868Z,12.86
2019-05-20T13:31:42.277Z,12.85
2019-05-20T13:34:10.687Z,12.86
2019-05-20T13:36:39.311Z,12.87
2019-05-20T13:39:08.244Z,12.89
2019-05-20T13:41:36.711Z,12.90
2019-05-20T13:44:05.374Z,12.91
2019-05-20T13:46:33.784Z,12.90
2019-05-20T13:49:02.186Z,12.94
2019-05-20T13:51:30.708Z,12.95
2019-05-20T13:53:59.101Z,12.95
2019-05-20T13:56:27.582Z,12.97
2019-05-20T13:58:56.131Z,12.97
2019-05-20T14:01:24.530Z,12.93
2019-05-20T14:03:56.730Z,12.94
2019-05-20T14:06:23.229Z,12.95
2019-05-20T14:08:51.627Z,12.95
2019-05-20T14:11:33.768Z,12.96
2019-05-20T14:13:50.329Z,12.95
2019-05-20T14:16:18.731Z,12.92
2019-05-20T14:18:47.131Z,12.90
2019-05-20T14:21:15.653Z,12.89
2019-05-20T14:23:44.047Z,12.90
2019-05-20T14:26:12.466Z,12.90
2019-05-20T14:28:41.097Z,12.90
2019-05-20T14:31:09.648Z,12.87
2019-05-20T14:33:38.048Z,12.83
2019-05-20T14:36:06.603Z,12.78
2019-05-20T14:38:35.815Z,12.79
2019-05-20T14:41:20.417Z,12.77
2019-05-20T14:43:34.726Z,12.77
2019-05-20T14:46:03.114Z,12.78
2019-05-20T14:48:31.504Z,12.80
2019-05-20T14:51:00.193Z,12.84
2019-05-20T14:53:28.600Z,12.88
2019-05-20T14:55:57.185Z,12.89
2019-05-20T14:58:25.743Z,12.89
2019-05-20T15:00:54.133Z,12.88
2019-05-20T15:03:22.533Z,12.86
2019-05-20T15:05:51.303Z,12.87
2019-05-20T15:08:20.130Z,12.90
2019-05-20T15:10:48.521Z,12.92
2019-05-20T15:13:17.127Z,12.95
2019-05-20T15:15:48.417Z,12.99
2019-05-20T15:18:15.716Z,13.04
2019-05-20T15:20:44.133Z,13.09
2019-05-20T15:23:12.597Z,13.12
2019-05-20T15:25:41.003Z,13.16
2019-05-20T15:28:09.652Z,13.18
2019-05-20T15:30:38.140Z,13.19
2019-05-20T15:33:08.944Z,13.20
2019-05-20T15:35:36.782Z,13.24
2019-05-20T15:38:05.191Z,13.30
2019-05-20T15:40:33.656Z,13.31
2019-05-20T15:43:02.281Z,13.28
2019-05-20T15:45:30.682Z,13.29
2019-05-20T15:47:59.264Z,13.31
2019-05-20T15:50:27.841Z,13.33
2019-05-20T15:52:56.244Z,13.37
2019-05-20T15:55:24.648Z,13.44
2019-05-20T15:57:53.290Z,13.51
2019-05-20T16:00:21.824Z,13.60
2019-05-20T16:02:50.289Z,13.66
2019-05-20T16:05:18.715Z,13.69
2019-05-20T16:07:47.103Z,13.75
2019-05-20T16:10:15.673Z,13.78
2019-05-20T16:12:44.109Z,13.77
2019-05-20T16:15:12.847Z,13.77
2019-05-20T16:17:41.294Z,13.79
2019-05-20T16:20:10.340Z,13.79
2019-05-20T16:22:41.434Z,13.78
2019-05-20T16:25:10.403Z,13.75
2019-05-20T16:27:39.023Z,13.69
2019-05-20T16:30:11.963Z,13.65
2019-05-20T16:32:40.518Z,13.63
2019-05-20T16:35:09.423Z,13.52
2019-05-20T16:37:37.795Z,13.44
2019-05-20T16:40:10.341Z,13.41
2019-05-20T16:42:39.132Z,13.39
2019-05-20T16:45:11.924Z,13.36
2019-05-20T16:47:39.679Z,13.35
2019-05-20T16:50:10.028Z,13.36
2019-05-20T16:52:38.666Z,13.36
2019-05-20T16:55:07.305Z,13.36
2019-05-20T16:57:35.854Z,13.36
2019-05-20T17:00:10.204Z,13.35
2019-05-20T17:02:36.176Z,13.36
2019-05-20T17:05:05.702Z,13.34
2019-05-20T17:07:34.097Z,13.36
2019-05-20T17:10:02.839Z,13.37
2019-05-20T17:12:31.445Z,13.36
2019-05-20T17:14:59.845Z,13.36
2019-05-20T17:17:28.259Z,13.36
2019-05-20T17:19:56.757Z,13.34
2019-05-20T17:22:25.161Z,13.34
2019-05-20T17:24:53.569Z,13.34
2019-05-20T17:27:22.147Z,13.29
2019-05-20T17:29:50.542Z,13.25
2019-05-20T17:32:18.945Z,13.17
2019-05-20T17:34:47.477Z,13.16
2019-05-20T17:37:15.869Z,13.15
2019-05-20T17:39:44.271Z,13.15
2019-05-20T17:42:12.782Z,13.12
2019-05-20T17:44:41.184Z,13.10
2019-05-20T17:47:09.745Z,13.12
2019-05-20T17:49:38.353Z,13.10
2019-05-20T17:52:06.758Z,13.10
2019-05-20T17:54:35.241Z,13.09
2019-05-20T17:57:03.789Z,13.08
2019-05-20T17:59:32.194Z,13.06
2019-05-20T18:02:00.657Z,13.05
2019-05-20T18:04:29.214Z,13.07
2019-05-20T18:06:57.606Z,13.07
2019-05-20T18:09:27.713Z,13.07
2019-05-20T18:11:56.319Z,13.05
2019-05-20T18:14:24.728Z,13.04
2019-05-20T18:16:53.144Z,13.01
2019-05-20T18:19:21.567Z,12.97
2019-05-20T18:21:49.972Z,12.98
2019-05-20T18:24:18.375Z,12.98
2019-05-20T18:26:46.947Z,12.96
2019-05-20T18:29:15.349Z,12.95
2019-05-20T18:31:43.755Z,12.93
2019-05-20T18:34:12.191Z,12.91
2019-05-20T18:36:40.661Z,12.88
2019-05-20T18:39:09.074Z,12.88
2019-05-20T18:41:37.683Z,12.87
2019-05-20T18:44:06.157Z,12.85
2019-05-20T18:46:34.557Z,12.82
2019-05-20T18:49:03.124Z,12.79
2019-05-20T18:51:31.520Z,12.79
2019-05-20T18:53:59.994Z,12.80
2019-05-20T18:56:28.431Z,12.80
2019-05-20T18:58:56.828Z,12.78
2019-05-20T19:01:25.223Z,12.77
2019-05-20T19:03:53.820Z,12.75
2019-05-20T19:06:22.213Z,12.74
2019-05-20T19:08:50.634Z,12.72
2019-05-20T19:11:19.445Z,12.68
2019-05-20T19:13:47.846Z,12.63
2019-05-20T19:16:16.253Z,12.58
2019-05-20T19:18:46.602Z,12.56
2019-05-20T19:21:15.021Z,12.55
2019-05-20T19:23:43.487Z,12.55
2019-05-20T19:26:23.847Z,12.54
2019-05-20T19:28:42.237Z,12.52
2019-05-20T19:31:10.640Z,12.50
2019-05-20T19:33:39.068Z,12.49
2019-05-20T19:36:09.689Z,12.50
2019-05-20T19:38:38.095Z,12.51
2019-05-20T19:41:06.611Z,12.51
2019-05-20T19:43:35.028Z,12.54
2019-05-20T19:46:03.542Z,12.57
2019-05-20T19:48:31.975Z,12.61
2019-05-20T19:51:00.372Z,12.63
2019-05-20T19:53:28.769Z,12.68
2019-05-20T19:55:57.483Z,12.70
2019-05-20T19:58:25.900Z,12.73
2019-05-20T20:00:56.691Z,12.73
2019-05-20T20:03:24.470Z,12.73
2019-05-20T20:05:52.872Z,12.71
2019-05-20T20:08:21.267Z,12.70
2019-05-20T20:10:49.951Z,12.66
2019-05-20T20:13:18.349Z,12.60
2019-05-20T20:15:46.751Z,12.57
2019-05-20T20:18:15.257Z,12.57
2019-05-20T20:20:43.654Z,12.59
2019-05-20T20:23:12.049Z,12.57
2019-05-20T20:25:40.640Z,12.59
2019-05-20T20:28:09.125Z,12.64
2019-05-20T20:30:37.525Z,12.69
2019-05-20T20:33:06.095Z,12.73
2019-05-20T20:35:38.096Z,12.73
2019-05-20T20:38:04.677Z,12.74
2019-05-20T20:40:33.213Z,12.71
2019-05-20T20:43:01.618Z,12.67
2019-05-20T20:45:30.021Z,12.63
2019-05-20T20:47:58.464Z,12.59
2019-05-20T20:50:26.868Z,12.57
2019-05-20T20:52:55.264Z,12.59
2019-05-20T20:55:23.847Z,12.58
2019-05-20T20:57:52.259Z,12.53
2019-05-20T21:00:20.718Z,12.52
2019-05-20T21:02:53.345Z,12.51
2019-05-20T21:05:19.414Z,12.48
2019-05-20T21:07:51.520Z,12.45
2019-05-20T21:10:17.965Z,12.44
2019-05-20T21:12:46.362Z,12.44
2019-05-20T21:15:15.096Z,12.43
2019-05-20T21:17:43.953Z,12.43
2019-05-20T21:20:12.691Z,12.43
2019-05-20T21:22:41.111Z,12.41
2019-05-20T21:25:09.773Z,12.40
2019-05-20T21:27:38.169Z,12.36
2019-05-20T21:30:08.301Z,12.31
2019-05-20T21:32:36.730Z,12.27
2019-05-20T21:35:05.874Z,12.25
2019-05-20T21:37:34.331Z,12.26
2019-05-20T21:40:02.737Z,12.28
2019-05-20T21:42:31.134Z,12.30
2019-05-20T21:44:59.535Z,12.28
2019-05-20T21:47:28.072Z,12.26
2019-05-20T21:49:56.471Z,12.24
2019-05-20T21:52:24.868Z,12.24
2019-05-20T21:54:53.422Z,12.26
2019-05-20T21:57:21.812Z,12.28
2019-05-20T21:59:50.216Z,12.29
2019-05-20T22:02:18.702Z,12.29
2019-05-20T22:04:47.105Z,12.27
2019-05-20T22:07:15.630Z,12.27
2019-05-20T22:09:44.102Z,12.25
2019-05-20T22:12:12.497Z,12.22
2019-05-20T22:14:40.909Z,12.19
2019-05-20T22:17:09.569Z,12.18
2019-05-20T22:19:37.942Z,12.15
2019-05-20T22:24:53.708Z,12.12
2019-05-20T22:27:22.207Z,12.11
2019-05-20T22:29:50.679Z,12.09
2019-05-20T22:32:19.092Z,12.09
2019-05-20T22:34:53.488Z,12.08
2019-05-20T22:37:17.762Z,12.07
2019-05-20T22:39:46.160Z,12.08
2019-05-20T22:42:14.580Z,12.10
2019-05-20T22:44:42.977Z,12.11
2019-05-20T22:47:11.445Z,12.13
2019-05-20T22:49:39.911Z,12.14
2019-05-20T22:52:08.327Z,12.16
2019-05-20T22:54:36.728Z,12.17
2019-05-20T22:57:05.305Z,12.16
2019-05-20T22:59:33.704Z,12.17
2019-05-20T23:02:02.127Z,12.17
2019-05-20T23:04:30.641Z,12.18
2019-05-20T23:06:59.041Z,12.18
2019-05-20T23:09:27.433Z,12.15
2019-05-20T23:11:57.878Z,12.16
2019-05-20T23:14:26.164Z,12.15
2019-05-20T23:16:54.564Z,12.13
2019-05-20T23:19:23.142Z,12.12
2019-05-20T23:21:51.536Z,12.10
2019-05-20T23:24:19.939Z,12.11
2019-05-20T23:26:48.360Z,12.13
2019-05-20T23:29:16.820Z,12.18
2019-05-20T23:31:45.218Z,12.20
2019-05-20T23:34:13.699Z,12.24
2019-05-20T23:36:42.084Z,12.26
2019-05-20T23:39:10.555Z,12.25
2019-05-20T23:41:38.986Z,12.25
2019-05-20T23:44:07.381Z,12.21
2019-05-20T23:46:35.778Z,12.16
2019-05-20T23:49:04.276Z,12.14
2019-05-20T23:51:32.672Z,12.12
2019-05-20T23:54:01.106Z,12.08
2019-05-20T23:56:29.688Z,12.04
2019-05-20T23:58:58.087Z,11.97
